Time;durP1;ratioP1;P1;durP2;ratioP2;P2;SDS_P1;SDS_P2;PMS_P1;PMS_P2;Temp;Humidity;BMP_temperature;BMP_pressure;BME280_temperature;BME280_humidity;BME280_pressure;Samples;Min_cycle;Max_cycle;Signal;HPM_P1;HPM_P2
2022/10/16 00:01:46;;;;;;;4.35;1.92;;;;;;;17.35;96.17;100252.53;5013101;28;20473;-66
2022/10/16 00:04:12;;;;;;;3.13;1.67;;;;;;;17.45;96.13;100242.69;5012754;28;20603;-65
2022/10/16 00:06:37;;;;;;;3.45;2.00;;;;;;;17.34;95.64;100248.28;5013689;28;20397;-65
2022/10/16 00:09:03;;;;;;;5.00;1.92;;;;;;;17.41;95.86;100240.00;5011579;28;20394;-65
2022/10/16 00:11:36;;;;;;;4.20;2.10;;;;;;;17.32;95.36;100258.03;5013602;28;20545;-66
2022/10/16 00:14:05;;;;;;;2.90;1.90;;;;;;;16.99;96.97;100254.19;5009253;28;20453;-66
2022/10/16 00:16:31;;;;;;;4.00;2.38;;;;;;;16.97;97.09;100253.81;5012829;28;20038;-66
2022/10/16 00:18:57;;;;;;;4.38;2.30;;;;;;;17.00;97.61;100255.72;5013275;28;20125;-66
2022/10/16 00:21:30;;;;;;;3.95;2.40;;;;;;;16.99;97.80;100256.91;5013382;28;20461;-66
2022/10/16 00:23:59;;;;;;;3.90;1.77;;;;;;;16.97;97.75;100257.31;5011959;28;20088;-65
2022/10/16 00:26:25;;;;;;;4.40;2.45;;;;;;;16.86;97.68;100253.19;5012728;28;20033;-65
2022/10/16 00:28:52;;;;;;;3.30;1.88;;;;;;;17.04;97.58;100264.63;5011983;28;20410;-66
2022/10/16 00:31:20;;;;;;;5.15;2.00;;;;;;;16.93;96.94;100266.69;5013136;28;20038;-66
2022/10/16 00:33:46;;;;;;;4.30;1.90;;;;;;;16.82;97.41;100253.22;5012500;28;20064;-66
2022/10/16 00:36:15;;;;;;;2.90;1.50;;;;;;;16.88;96.56;100253.53;5012099;28;20072;-66
2022/10/16 00:38:41;;;;;;;3.67;1.95;;;;;;;17.01;95.93;100262.72;5012872;28;20067;-66
2022/10/16 00:41:07;;;;;;;2.60;1.67;;;;;;;16.96;96.44;100265.88;5012870;28;20037;-66
2022/10/16 00:43:50;;;;;;;3.42;1.92;;;;;;;16.96;95.98;100274.03;5010528;28;20129;-66
2022/10/16 00:46:15;;;;;;;2.95;1.77;;;;;;;16.90;95.86;100267.50;5011895;28;20038;-66
2022/10/16 00:48:45;;;;;;;2.15;1.48;;;;;;;16.84;96.23;100263.72;5012856;28;20041;-66
2022/10/16 00:51:12;;;;;;;2.88;1.60;;;;;;;16.89;95.57;100268.69;5012400;28;20041;-65
2022/10/16 00:53:37;;;;;;;4.03;1.85;;;;;;;16.89;95.47;100272.19;5012534;28;20038;-66
2022/10/16 00:56:03;;;;;;;2.05;1.38;;;;;;;16.89;94.98;100276.84;5010699;28;20509;-66
2022/10/16 00:58:29;;;;;;;3.03;1.70;;;;;;;16.93;94.79;100272.91;5012778;28;20029;-66
2022/10/16 01:00:54;;;;;;;2.78;1.63;;;;;;;16.81;95.11;100278.88;5011874;28;20037;-66
2022/10/16 01:03:29;;;;;;;4.22;1.60;;;;;;;16.84;95.07;100274.59;5012549;28;20041;-66
2022/10/16 01:06:18;;;;;;;4.00;1.77;;;;;;;16.68;94.76;100280.59;5011697;28;20044;-66
2022/10/16 01:08:53;;;;;;;4.07;1.40;;;;;;;16.72;95.10;100272.38;4983187;28;20497;-66
2022/10/16 01:11:52;;;;;;;2.17;1.27;;;;;;;16.70;94.86;100286.41;5012389;28;20487;-66
2022/10/16 01:14:28;;;;;;;3.15;1.73;;;;;;;16.39;95.70;100286.66;5009513;28;20072;-66
2022/10/16 01:17:23;;;;;;;2.83;1.17;;;;;;;16.47;96.23;100290.88;5011833;28;20034;-66
2022/10/16 01:19:51;;;;;;;1.45;1.20;;;;;;;16.55;95.75;100284.97;4992826;28;20035;-66
2022/10/16 01:22:19;;;;;;;5.00;1.60;;;;;;;16.64;94.77;100288.00;4992601;28;20056;-66
2022/10/16 01:24:49;;;;;;;2.85;1.50;;;;;;;16.73;94.35;100292.94;4992708;28;20061;-66
2022/10/16 01:27:18;;;;;;;5.07;1.58;;;;;;;16.65;93.01;100291.47;5011997;28;20494;-66
2022/10/16 01:29:58;;;;;;;5.20;1.58;;;;;;;16.66;93.60;100298.47;5010815;28;20067;-66
2022/10/16 01:32:46;;;;;;;2.33;1.38;;;;;;;16.71;93.50;100298.03;5012088;28;20053;-66
2022/10/16 01:35:15;;;;;;;4.13;1.10;;;;;;;16.54;93.02;100305.19;4990869;28;20125;-66
2022/10/16 01:37:50;;;;;;;1.45;1.27;;;;;;;16.57;93.01;100303.63;5010803;28;20045;-66
2022/10/16 01:40:17;;;;;;;1.70;0.93;;;;;;;16.62;92.61;100301.25;5010479;28;20042;-66
2022/10/16 01:42:50;;;;;;;1.77;1.23;;;;;;;16.47;92.10;100299.81;5012061;28;20042;-66
2022/10/16 01:45:18;;;;;;;2.88;1.05;;;;;;;16.54;92.19;100294.31;5008896;28;20099;-66
2022/10/16 01:47:46;;;;;;;1.20;0.93;;;;;;;16.53;91.59;100302.88;5011979;28;20040;-66
2022/10/16 01:50:14;;;;;;;2.25;0.80;;;;;;;16.52;91.34;100301.31;4993911;28;20042;-65
2022/10/16 01:52:43;;;;;;;2.25;1.15;;;;;;;16.39;91.89;100297.53;5011847;28;20038;-66
2022/10/16 01:55:12;;;;;;;2.30;1.10;;;;;;;16.39;91.65;100292.88;5010218;28;20034;-66
2022/10/16 01:57:42;;;;;;;1.38;0.73;;;;;;;16.44;91.82;100295.16;5011803;28;20026;-66
2022/10/16 02:00:11;;;;;;;1.30;0.80;;;;;;;16.48;90.94;100298.66;4993946;28;20080;-65
2022/10/16 02:02:44;;;;;;;2.15;0.98;;;;;;;16.45;91.20;100301.38;5011128;28;20988;-66
2022/10/16 02:05:19;;;;;;;4.63;0.90;;;;;;;16.35;91.59;100299.53;5010655;28;20169;-65
2022/10/16 02:07:45;;;;;;;1.55;0.90;;;;;;;16.40;91.15;100302.56;5011416;28;20121;-66
2022/10/16 02:10:11;;;;;;;3.08;0.95;;;;;;;16.40;90.73;100305.28;5011413;28;20657;-66
2022/10/16 02:12:40;;;;;;;1.63;0.82;;;;;;;16.15;91.16;100305.50;5007698;28;20040;-66
2022/10/16 02:15:06;;;;;;;1.85;0.57;;;;;;;16.37;91.16;100299.88;5010409;28;20034;-66
2022/10/16 02:17:32;;;;;;;1.17;0.75;;;;;;;16.19;90.37;100298.09;5011468;28;20022;-66
2022/10/16 02:19:59;;;;;;;1.50;0.80;;;;;;;16.32;89.98;100303.81;5010942;28;20501;-66
2022/10/16 02:22:46;;;;;;;1.83;0.68;;;;;;;16.02;89.96;100296.31;5011407;28;20042;-66
2022/10/16 02:25:20;;;;;;;1.05;0.90;;;;;;;16.24;90.35;100300.38;5009429;28;20038;-66
2022/10/16 02:27:57;;;;;;;4.30;0.80;;;;;;;16.17;89.71;100302.38;5010820;28;20056;-66
2022/10/16 02:30:32;;;;;;;1.25;0.73;;;;;;;16.23;89.74;100298.06;5011404;28;20502;-66
2022/10/16 02:33:00;;;;;;;1.48;0.70;;;;;;;16.25;89.44;100299.22;5010222;28;20124;-66
2022/10/16 02:35:27;;;;;;;0.95;0.60;;;;;;;16.30;89.83;100302.69;5010442;28;20401;-66
2022/10/16 02:37:54;;;;;;;2.35;0.57;;;;;;;16.22;88.60;100302.72;5010702;28;20025;-66
2022/10/16 02:40:21;;;;;;;1.23;0.50;;;;;;;16.16;88.99;100306.28;5011121;28;20045;-66
2022/10/16 02:42:50;;;;;;;0.85;0.57;;;;;;;16.22;88.88;100307.38;5011095;28;20042;-66
2022/10/16 02:45:16;;;;;;;2.10;0.90;;;;;;;16.00;89.67;100300.59;4991937;28;20084;-65
2022/10/16 02:47:42;;;;;;;1.88;0.90;;;;;;;16.03;89.79;100308.69;5013969;28;20141;-66
2022/10/16 02:50:07;;;;;;;1.00;0.70;;;;;;;16.05;89.69;100300.16;5014950;28;20108;-65
2022/10/16 02:52:33;;;;;;;6.60;0.73;;;;;;;16.10;89.05;100302.44;5014997;28;20034;-65
2022/10/16 02:54:58;;;;;;;1.13;0.68;;;;;;;16.11;89.16;100293.13;5013555;28;20069;-66
2022/10/16 02:57:24;;;;;;;0.93;0.70;;;;;;;16.18;89.08;100293.06;5014814;28;20041;-66
2022/10/16 02:59:49;;;;;;;5.25;0.73;;;;;;;16.11;89.04;100304.75;5013683;28;20104;-66
2022/10/16 03:02:15;;;;;;;0.68;0.50;;;;;;;16.04;88.90;100310.25;5014601;28;20041;-66
2022/10/16 03:04:40;;;;;;;0.80;0.60;;;;;;;16.05;88.73;100300.94;5013301;28;20070;-66
2022/10/16 03:07:07;;;;;;;1.10;0.57;;;;;;;16.01;89.53;100305.63;5014663;28;20022;-66
2022/10/16 03:09:32;;;;;;;2.38;1.35;;;;;;;16.09;88.91;100303.63;5014660;28;20038;-66
2022/10/16 03:11:58;;;;;;;1.40;0.70;;;;;;;16.05;89.06;100300.94;5014128;28;20095;-66
2022/10/16 03:14:24;;;;;;;0.50;0.50;;;;;;;16.01;89.09;100294.75;5011624;28;20073;-66
2022/10/16 03:16:49;;;;;;;1.92;0.90;;;;;;;16.02;89.02;100300.97;5013297;28;20029;-66
2022/10/16 03:19:16;;;;;;;0.40;0.40;;;;;;;15.98;89.53;100294.78;5009520;28;20597;-65
2022/10/16 03:21:42;;;;;;;1.35;0.60;;;;;;;15.89;90.04;100299.91;4994856;28;20088;-66
2022/10/16 03:24:07;;;;;;;2.22;0.82;;;;;;;15.84;90.02;100303.03;4993991;28;20046;-66
2022/10/16 03:26:33;;;;;;;0.55;0.40;;;;;;;15.89;89.60;100303.38;4994830;28;20034;-65
2022/10/16 03:28:58;;;;;;;0.75;0.68;;;;;;;15.95;89.04;100301.78;5008999;28;20030;-66
2022/10/16 03:31:24;;;;;;;2.42;0.52;;;;;;;15.87;89.82;100302.25;5012962;28;20030;-66
2022/10/16 03:33:49;;;;;;;0.77;0.60;;;;;;;15.94;89.65;100302.19;5014239;28;20115;-66
2022/10/16 03:36:15;;;;;;;2.45;0.50;;;;;;;15.82;90.08;100292.56;5012649;28;20037;-66
2022/10/16 03:38:40;;;;;;;0.70;0.70;;;;;;;15.81;90.13;100293.75;5014187;28;20494;-66
2022/10/16 03:41:07;;;;;;;0.77;0.50;;;;;;;15.76;89.77;100298.81;5014095;28;20030;-65
2022/10/16 03:43:33;;;;;;;2.55;0.75;;;;;;;15.73;90.18;100300.38;5012684;28;20037;-66
2022/10/16 03:45:58;;;;;;;2.88;0.70;;;;;;;15.87;89.87;100299.53;5012626;28;20589;-66
2022/10/16 03:48:24;;;;;;;0.60;0.50;;;;;;;15.96;89.38;100307.97;5014008;28;20068;-65
2022/10/16 03:50:51;;;;;;;1.20;0.70;;;;;;;15.71;90.19;100307.38;5013829;28;20420;-66
2022/10/16 03:53:17;;;;;;;1.35;0.70;;;;;;;15.80;89.99;100303.06;5013300;28;20046;-65
2022/10/16 03:55:43;;;;;;;0.65;0.50;;;;;;;15.78;89.34;100308.09;5013113;28;20030;-66
2022/10/16 03:58:09;;;;;;;2.35;0.55;;;;;;;15.72;89.93;100311.63;5011430;28;20113;-66
2022/10/16 04:00:35;;;;;;;1.58;0.73;;;;;;;15.74;90.02;100322.88;5013797;28;20504;-65
2022/10/16 04:03:00;;;;;;;0.57;0.30;;;;;;;15.74;89.68;100318.22;5013348;28;20041;-66
2022/10/16 04:05:26;;;;;;;3.70;0.70;;;;;;;15.83;89.63;100321.25;5011447;28;20083;-66
2022/10/16 04:07:51;;;;;;;2.50;0.85;;;;;;;15.81;89.05;100325.56;5013637;28;20384;-65
2022/10/16 04:10:17;;;;;;;0.98;0.47;;;;;;;15.74;89.41;100325.56;5013479;28;20045;-66
2022/10/16 04:12:42;;;;;;;0.68;0.50;;;;;;;15.47;90.25;100332.72;5010358;28;20045;-66
2022/10/16 04:15:08;;;;;;;0.50;0.40;;;;;;;15.51;90.69;100328.03;5012494;28;20042;-65
2022/10/16 04:17:34;;;;;;;1.67;0.50;;;;;;;15.56;90.68;100339.28;5013378;28;20030;-65
2022/10/16 04:19:59;;;;;;;0.40;0.40;;;;;;;15.44;90.54;100345.16;5012932;28;20505;-66
2022/10/16 04:22:24;;;;;;;0.65;0.40;;;;;;;15.48;89.92;100348.63;5013064;28;20572;-65
2022/10/16 04:24:50;;;;;;;4.95;1.42;;;;;;;15.35;90.55;100340.09;5012413;28;20048;-65
2022/10/16 04:27:16;;;;;;;0.75;0.60;;;;;;;15.42;90.87;100339.34;5013228;28;20030;-66
2022/10/16 04:29:41;;;;;;;0.65;0.65;;;;;;;15.56;89.81;100341.22;5012560;28;20037;-65
2022/10/16 04:32:08;;;;;;;0.70;0.50;;;;;;;15.47;90.14;100343.56;5012009;28;20107;-66
2022/10/16 04:34:34;;;;;;;3.20;0.50;;;;;;;15.58;89.88;100342.34;5010814;28;20029;-66
2022/10/16 04:37:02;;;;;;;0.47;0.47;;;;;;;15.47;89.80;100349.00;5013221;28;20475;-66
2022/10/16 04:39:30;;;;;;;0.57;0.57;;;;;;;15.45;90.07;100343.97;5012470;28;20037;-65
2022/10/16 04:41:56;;;;;;;0.95;0.50;;;;;;;15.60;89.47;100353.59;5012920;28;20033;-65
2022/10/16 04:44:21;;;;;;;2.17;0.80;;;;;;;15.48;89.40;100359.47;5011870;28;20886;-65
2022/10/16 04:46:47;;;;;;;3.03;0.52;;;;;;;15.44;90.33;100363.38;5010891;28;20093;-65
2022/10/16 04:49:13;;;;;;;3.75;0.47;;;;;;;15.49;89.76;100371.88;5012633;28;20117;-66
2022/10/16 04:51:38;;;;;;;0.80;0.50;;;;;;;15.37;90.60;100369.56;5012840;28;20453;-65
2022/10/16 04:54:03;;;;;;;1.85;0.52;;;;;;;15.28;91.10;100372.69;5011640;28;20113;-66
2022/10/16 04:56:29;;;;;;;1.98;0.60;;;;;;;15.28;90.91;100367.28;5012581;28;20029;-65
2022/10/16 04:58:54;;;;;;;5.55;0.65;;;;;;;15.33;90.51;100382.34;5012637;28;20065;-65
2022/10/16 05:01:20;;;;;;;3.28;0.70;;;;;;;15.27;91.16;100376.56;5012503;28;20462;-65
2022/10/16 05:03:45;;;;;;;1.25;0.50;;;;;;;15.32;91.32;100372.69;5011956;28;20022;-66
2022/10/16 05:06:11;;;;;;;1.65;0.45;;;;;;;15.31;90.72;100360.31;5011610;28;20091;-65
2022/10/16 05:08:36;;;;;;;0.30;0.30;;;;;;;15.39;90.87;100361.78;5012281;28;20087;-66
2022/10/16 05:11:02;;;;;;;0.60;0.60;;;;;;;15.44;90.09;100377.72;5012378;28;20034;-66
2022/10/16 05:13:27;;;;;;;1.38;0.68;;;;;;;15.44;90.42;100385.84;5009132;28;20478;-66
2022/10/16 05:15:53;;;;;;;1.92;0.50;;;;;;;15.25;90.71;100384.31;5010137;28;20034;-66
2022/10/16 05:18:18;;;;;;;1.30;0.57;;;;;;;15.36;91.05;100392.44;5011646;28;20446;-66
2022/10/16 05:20:44;;;;;;;0.65;0.60;;;;;;;15.32;90.97;100395.19;5012240;28;20038;-66
2022/10/16 05:23:10;;;;;;;1.83;0.70;;;;;;;15.27;91.40;100387.41;5012230;28;20351;-65
2022/10/16 05:25:36;;;;;;;2.15;0.60;;;;;;;15.11;91.78;100391.75;5010066;28;20018;-66
2022/10/16 05:28:02;;;;;;;1.20;0.55;;;;;;;15.12;91.62;100396.00;5010245;28;20044;-66
2022/10/16 05:30:27;;;;;;;1.00;0.60;;;;;;;15.03;92.77;100398.34;5011997;28;20038;-65
2022/10/16 05:32:53;;;;;;;1.60;1.05;;;;;;;15.10;92.33;100401.03;5012099;28;20096;-65
2022/10/16 05:35:19;;;;;;;1.38;0.68;;;;;;;15.06;92.41;100397.56;5009886;28;20068;-66
2022/10/16 05:37:45;;;;;;;2.30;0.70;;;;;;;15.05;92.72;100406.88;5011590;28;20449;-66
2022/10/16 05:40:11;;;;;;;3.28;1.02;;;;;;;15.09;92.47;100403.00;5012014;28;20042;-66
2022/10/16 05:42:37;;;;;;;1.70;0.85;;;;;;;15.20;92.08;100406.44;5012058;28;20061;-66
2022/10/16 05:45:04;;;;;;;1.55;0.70;;;;;;;15.29;91.94;100414.94;5010380;28;20517;-66
2022/10/16 05:47:29;;;;;;;2.80;0.65;;;;;;;15.29;91.65;100414.19;5011832;28;20033;-66
2022/10/16 05:49:55;;;;;;;2.60;0.68;;;;;;;15.20;91.86;100398.31;5011654;28;20493;-66
2022/10/16 05:52:21;;;;;;;2.22;0.90;;;;;;;15.22;91.67;100395.97;5011318;28;20044;-66
2022/10/16 05:54:46;;;;;;;3.45;0.80;;;;;;;15.20;92.02;100403.72;5010851;28;20045;-66
2022/10/16 05:57:12;;;;;;;0.77;0.65;;;;;;;15.28;91.63;100399.84;5011856;28;20030;-66
2022/10/16 05:59:37;;;;;;;0.82;0.73;;;;;;;15.24;91.57;100409.13;5011698;28;20037;-66
2022/10/16 06:02:03;;;;;;;3.22;1.02;;;;;;;15.17;91.57;100407.25;5010993;28;20045;-66
2022/10/16 06:04:28;;;;;;;1.00;0.45;;;;;;;15.15;92.01;100409.56;5010670;28;20027;-66
2022/10/16 06:07:00;;;;;;;0.50;0.50;;;;;;;15.16;92.04;100426.59;5011599;28;20153;-66
2022/10/16 06:09:26;;;;;;;0.80;0.60;;;;;;;15.20;92.11;100421.94;5011349;28;20038;-65
2022/10/16 06:11:51;;;;;;;0.82;0.60;;;;;;;15.25;91.52;100418.84;5009412;28;20064;-65
2022/10/16 06:14:17;;;;;;;2.67;0.80;;;;;;;15.28;91.70;100426.97;5009335;28;20034;-66
2022/10/16 06:16:42;;;;;;;2.65;0.75;;;;;;;15.23;91.64;100424.63;5008809;28;20104;-66
2022/10/16 06:19:09;;;;;;;0.98;0.52;;;;;;;15.24;91.77;100428.13;5011115;28;20105;-66
2022/10/16 06:21:34;;;;;;;1.30;0.70;;;;;;;15.32;91.26;100426.97;5010719;28;20396;-65
2022/10/16 06:24:00;;;;;;;0.85;0.57;;;;;;;15.23;91.50;100421.19;5010565;28;20030;-65
2022/10/16 06:26:28;;;;;;;0.40;0.40;;;;;;;15.32;90.98;100418.81;5011296;28;20045;-66
2022/10/16 06:28:55;;;;;;;1.95;0.73;;;;;;;15.20;91.75;100421.94;5011443;28;20100;-66
2022/10/16 06:31:22;;;;;;;1.77;0.77;;;;;;;15.24;91.43;100428.13;5009435;28;20144;-65
2022/10/16 06:33:51;;;;;;;2.28;0.57;;;;;;;15.12;92.03;100434.75;5011208;28;20285;-66
2022/10/16 06:36:17;;;;;;;2.60;0.93;;;;;;;15.08;92.35;100438.63;5009258;28;20495;-66
2022/10/16 06:38:43;;;;;;;1.35;0.73;;;;;;;15.20;92.03;100439.00;5010685;28;20117;-66
2022/10/16 06:41:15;;;;;;;0.75;0.60;;;;;;;14.93;93.64;100437.09;5011264;28;20040;-66
2022/10/16 06:43:40;;;;;;;6.57;0.95;;;;;;;14.97;93.67;100438.66;5011083;28;20402;-66
2022/10/16 06:46:09;;;;;;;2.88;0.80;;;;;;;15.03;93.23;100444.44;5009819;28;20030;-66
2022/10/16 06:48:35;;;;;;;1.83;0.85;;;;;;;15.03;93.45;100452.59;5011010;28;20030;-65
2022/10/16 06:51:03;;;;;;;1.52;0.80;;;;;;;15.10;93.07;100456.06;5009949;28;20505;-66
2022/10/16 06:53:31;;;;;;;0.95;0.63;;;;;;;15.14;93.30;100459.53;5011146;28;20091;-65
2022/10/16 06:55:57;;;;;;;1.73;0.95;;;;;;;15.17;92.82;100471.56;5009880;28;20018;-66
2022/10/16 06:58:22;;;;;;;1.65;1.30;;;;;;;15.12;93.17;100461.09;5011190;28;20060;-65
2022/10/16 07:00:48;;;;;;;3.70;0.82;;;;;;;15.11;93.74;100468.47;5010798;28;20038;-66
2022/10/16 07:03:14;;;;;;;2.00;0.93;;;;;;;15.10;93.75;100471.56;5010934;28;20046;-66
2022/10/16 07:05:41;;;;;;;1.98;1.23;;;;;;;14.99;94.60;100462.66;5007866;28;20410;-66
2022/10/16 07:08:07;;;;;;;4.32;1.25;;;;;;;14.96;95.56;100466.16;5010707;28;20061;-66
2022/10/16 07:10:34;;;;;;;1.00;0.85;;;;;;;14.92;96.55;100479.72;5010991;28;20042;-65
2022/10/16 07:12:59;;;;;;;1.73;0.98;;;;;;;15.10;96.05;100474.28;5010787;28;20034;-65
2022/10/16 07:15:26;;;;;;;2.50;0.82;;;;;;;15.10;96.66;100475.06;5009551;28;20185;-66
2022/10/16 07:17:51;;;;;;;3.90;1.02;;;;;;;15.17;96.58;100485.91;5008205;28;20034;-66
2022/10/16 07:20:17;;;;;;;2.63;0.82;;;;;;;15.42;95.26;100488.59;5009686;28;20045;-66
2022/10/16 07:22:42;;;;;;;2.25;1.13;;;;;;;15.58;95.68;100477.31;5010555;28;20660;-66
2022/10/16 07:25:08;;;;;;;1.80;1.00;;;;;;;15.76;95.65;100481.53;5009804;28;20026;-66
2022/10/16 07:27:34;;;;;;;1.23;0.90;;;;;;;15.87;95.23;100493.09;5010701;28;20134;-66
2022/10/16 07:29:59;;;;;;;1.75;1.02;;;;;;;15.92;94.96;100491.94;5010753;28;20037;-66
2022/10/16 07:32:25;;;;;;;1.83;1.00;;;;;;;16.10;94.18;100498.81;5009968;28;20029;-66
2022/10/16 07:34:51;;;;;;;2.40;0.82;;;;;;;16.36;94.79;100504.91;5012623;28;20033;-66
2022/10/16 07:37:17;;;;;;;1.88;0.90;;;;;;;16.62;93.24;100507.13;5014309;28;20034;-66
2022/10/16 07:39:42;;;;;;;4.22;0.98;;;;;;;16.98;92.53;100513.84;5013673;28;20469;-66
2022/10/16 07:42:08;;;;;;;1.05;0.70;;;;;;;17.17;91.05;100518.72;5014041;28;20037;-66
2022/10/16 07:44:33;;;;;;;4.55;1.83;;;;;;;17.39;89.68;100528.25;5013177;28;20045;-66
2022/10/16 07:46:59;;;;;;;3.67;1.20;;;;;;;17.67;89.12;100536.16;5013612;28;20026;-66
2022/10/16 07:49:24;;;;;;;0.90;0.70;;;;;;;17.83;88.42;100538.31;5013669;28;20394;-66
2022/10/16 07:51:50;;;;;;;1.63;0.80;;;;;;;17.85;87.59;100539.47;5013873;28;20069;-66
2022/10/16 07:54:15;;;;;;;1.75;0.82;;;;;;;18.12;87.36;100550.44;5013088;28;20048;-65
2022/10/16 07:56:41;;;;;;;1.13;0.70;;;;;;;18.07;85.88;100548.19;5013328;28;20042;-66
2022/10/16 07:59:06;;;;;;;1.88;0.63;;;;;;;18.15;85.50;100548.88;5013708;28;20038;-66
2022/10/16 08:01:32;;;;;;;0.57;0.47;;;;;;;18.03;86.28;100550.94;5013741;28;20042;-66
2022/10/16 08:03:57;;;;;;;1.45;0.90;;;;;;;18.27;86.20;100551.84;5011761;28;20038;-65
2022/10/16 08:06:23;;;;;;;1.50;0.80;;;;;;;18.47;85.62;100558.22;5012915;28;20046;-65
2022/10/16 08:08:49;;;;;;;0.88;0.50;;;;;;;18.69;85.25;100555.97;5013528;28;20056;-66
2022/10/16 08:11:14;;;;;;;1.45;0.75;;;;;;;18.63;84.23;100552.94;5013499;28;20026;-66
2022/10/16 08:13:40;;;;;;;1.27;0.50;;;;;;;18.81;84.39;100560.84;5012946;28;20076;-66
2022/10/16 08:16:08;;;;;;;0.80;0.70;;;;;;;18.79;83.55;100560.50;5012389;28;20041;-66
2022/10/16 08:18:35;;;;;;;1.05;0.63;;;;;;;18.80;83.62;100554.63;5010136;28;20108;-65
2022/10/16 08:21:01;;;;;;;2.08;0.60;;;;;;;18.97;83.23;100558.25;5013470;28;20041;-66
2022/10/16 08:23:28;;;;;;;0.52;0.43;;;;;;;18.89;82.32;100562.31;5011701;28;20029;-66
2022/10/16 08:25:54;;;;;;;2.80;1.40;;;;;;;18.58;83.66;100564.28;5012262;28;20052;-66
2022/10/16 08:28:21;;;;;;;1.63;0.68;;;;;;;18.69;83.78;100570.38;5013256;28;20038;-66
2022/10/16 08:30:46;;;;;;;2.15;0.77;;;;;;;18.69;83.68;100572.34;5013259;28;20121;-66
2022/10/16 08:33:12;;;;;;;6.82;0.68;;;;;;;18.67;83.22;100570.03;5010779;28;20113;-66
2022/10/16 08:35:37;;;;;;;0.50;0.50;;;;;;;18.26;85.19;100572.09;5012281;28;20042;-65
2022/10/16 08:38:04;;;;;;;0.65;0.50;;;;;;;18.27;85.34;100567.41;5012991;28;20053;-66
2022/10/16 08:40:32;;;;;;;0.68;0.45;;;;;;;18.52;84.93;100568.69;5012891;28;20030;-65
2022/10/16 08:43:22;;;;;;;3.28;0.57;;;;;;;18.28;85.12;100568.94;5012458;28;20037;-66
2022/10/16 08:46:23;;;;;;;1.40;0.50;;;;;;;18.40;84.36;100568.41;5010411;28;20033;-66
2022/10/16 08:48:56;;;;;;;0.90;0.70;;;;;;;18.67;83.69;100571.97;5004463;28;20049;-66
2022/10/16 08:51:36;;;;;;;0.60;0.57;;;;;;;18.82;83.44;100578.75;5011420;28;20064;-65
2022/10/16 08:54:30;;;;;;;0.93;0.70;;;;;;;19.17;83.07;100577.44;5011979;28;20099;-66
2022/10/16 08:57:00;;;;;;;0.75;0.57;;;;;;;19.43;80.69;100577.44;5012833;28;20083;-66
2022/10/16 08:59:26;;;;;;;1.52;0.30;;;;;;;19.66;79.70;100568.44;5012975;28;20499;-65
2022/10/16 09:01:52;;;;;;;0.88;0.43;;;;;;;19.93;78.08;100573.78;5011959;28;20022;-66
2022/10/16 09:04:26;;;;;;;2.88;0.68;;;;;;;20.16;77.47;100582.72;5011936;28;20044;-66
2022/10/16 09:07:02;;;;;;;0.43;0.40;;;;;;;19.99;77.50;100583.84;5012639;28;20756;-65
2022/10/16 09:09:38;;;;;;;0.47;0.30;;;;;;;20.01;77.26;100586.91;5010480;28;20060;-66
2022/10/16 09:12:33;;;;;;;0.45;0.30;;;;;;;20.29;76.16;100599.28;5012510;28;20116;-66
2022/10/16 09:15:29;;;;;;;0.57;0.30;;;;;;;20.65;75.23;100597.34;5011535;28;20045;-65
2022/10/16 09:18:17;;;;;;;0.68;0.40;;;;;;;20.89;74.56;100593.28;5010744;28;20033;-65
2022/10/16 09:20:51;;;;;;;0.40;0.32;;;;;;;20.99;73.29;100605.19;5012240;28;20042;-65
2022/10/16 09:23:26;;;;;;;0.75;0.50;;;;;;;20.59;73.83;100599.81;5012239;28;20394;-66
2022/10/16 09:25:53;;;;;;;1.27;0.55;;;;;;;20.86;73.73;100607.06;5011424;28;20114;-66
2022/10/16 09:28:19;;;;;;;1.10;0.45;;;;;;;20.76;73.60;100613.53;5011475;28;20442;-66
2022/10/16 09:30:46;;;;;;;0.50;0.38;;;;;;;20.89;74.02;100612.44;5011039;28;20038;-65
2022/10/16 09:33:13;;;;;;;0.30;0.30;;;;;;;21.00;73.07;100620.44;5012048;28;20085;-66
2022/10/16 09:35:44;;;;;;;0.43;0.43;;;;;;;21.04;72.49;100618.41;5009408;28;20048;-66
2022/10/16 09:38:22;;;;;;;0.68;0.45;;;;;;;20.88;71.54;100621.88;5011928;28;20034;-66
2022/10/16 09:40:48;;;;;;;0.60;0.40;;;;;;;20.95;71.50;100620.91;5010788;28;20092;-66
2022/10/16 09:43:13;;;;;;;0.57;0.40;;;;;;;20.84;72.10;100629.38;5011731;28;20045;-66
2022/10/16 09:45:39;;;;;;;1.98;0.60;;;;;;;20.82;71.40;100622.78;4992821;28;20037;-65
2022/10/16 09:48:12;;;;;;;0.80;0.40;;;;;;;21.04;71.29;100621.16;5011665;28;20629;-66
2022/10/16 09:50:38;;;;;;;0.63;0.50;;;;;;;21.14;71.60;100628.34;5011820;28;20601;-65
2022/10/16 09:53:13;;;;;;;1.02;0.40;;;;;;;21.01;70.05;100627.47;5011976;28;20049;-66
2022/10/16 09:55:50;;;;;;;0.85;0.55;;;;;;;20.85;70.36;100630.91;5009906;28;20380;-66
2022/10/16 09:58:15;;;;;;;0.63;0.50;;;;;;;20.88;68.72;100638.31;5011478;28;20033;-66
2022/10/16 10:00:48;;;;;;;0.30;0.30;;;;;;;20.77;69.23;100632.25;5010540;28;20180;-66
2022/10/16 10:03:37;;;;;;;0.55;0.30;;;;;;;20.70;70.48;100637.91;5011191;28;20399;-66
2022/10/16 10:06:05;;;;;;;0.38;0.35;;;;;;;;;;5010626;28;20037;-65
2022/10/16 10:10:57;;;;;;;2.60;0.30;;;;;;;20.85;69.63;100646.59;5030210;23;20505;-67
2022/10/16 10:13:24;;;;;;;0.20;0.20;;;;;;;20.70;69.23;100651.59;5011427;28;20037;-69
2022/10/16 10:15:50;;;;;;;0.25;0.25;;;;;;;21.04;69.04;100657.50;5010673;28;20048;-68
2022/10/16 10:18:19;;;;;;;0.30;0.30;;;;;;;21.02;68.27;100654.41;5006823;28;20034;-68
2022/10/16 10:20:45;;;;;;;0.68;0.40;;;;;;;21.21;68.01;100661.84;5023362;28;20053;-68
2022/10/16 10:23:23;;;;;;;0.45;0.43;;;;;;;21.10;67.97;100664.03;5011447;28;20394;-68
2022/10/16 10:26:24;;;;;;;0.30;0.22;;;;;;;21.06;67.68;100655.13;5010629;28;20068;-67
2022/10/16 10:28:53;;;;;;;0.70;0.55;;;;;;;21.39;66.90;100664.13;5008956;28;20045;-68
2022/10/16 10:31:34;;;;;;;0.17;0.17;;;;;;;21.48;66.45;100672.56;5011308;28;20042;-68
2022/10/16 10:34:37;;;;;;;0.32;0.20;;;;;;;21.49;66.36;100663.13;5009410;28;20042;-68
2022/10/16 10:37:19;;;;;;;1.20;0.50;;;;;;;21.37;66.58;100653.59;5010036;28;20037;-69
2022/10/16 10:40:15;;;;;;;0.63;0.30;;;;;;;21.38;64.76;100663.38;5010169;28;20526;-67
2022/10/16 10:42:48;;;;;;;2.03;0.30;;;;;;;21.34;64.47;100675.63;5011304;28;20033;-68
2022/10/16 10:45:26;;;;;;;0.22;0.20;;;;;;;21.44;64.66;100674.59;5010386;28;20129;-68
2022/10/16 10:48:20;;;;;;;0.30;0.10;;;;;;;21.56;63.57;100682.16;5011226;28;20044;-69
2022/10/16 10:50:51;;;;;;;1.02;0.25;;;;;;;21.74;63.82;100679.72;5010093;28;20041;-68
2022/10/16 10:53:35;;;;;;;;;;;;;;;21.89;63.52;100688.41;5011522;28;20536;-68
2022/10/16 10:56:10;;;;;;;2.00;0.20;;;;;;;21.90;63.44;100687.19;5010325;28;20063;-67
2022/10/16 10:58:51;;;;;;;2.17;0.30;;;;;;;22.03;61.61;100688.03;5010969;28;20053;-69
2022/10/16 11:01:21;;;;;;;0.80;0.20;;;;;;;22.02;61.36;100681.78;5011443;28;20038;-71
2022/10/16 11:03:47;;;;;;;1.05;0.20;;;;;;;22.17;60.94;100690.41;5010034;28;20041;-69
2022/10/16 11:06:29;;;;;;;2.88;0.10;;;;;;;21.77;60.22;100676.13;5008763;28;20486;-69
2022/10/16 11:09:19;;;;;;;1.65;0.22;;;;;;;21.71;60.75;100685.31;5014159;28;20044;-70
2022/10/16 11:11:49;;;;;;;0.90;0.30;;;;;;;21.55;61.42;100695.09;5014943;28;20429;-69
2022/10/16 11:14:28;;;;;;;0.95;0.20;;;;;;;21.47;61.09;100703.88;5014237;28;20061;-69
2022/10/16 11:17:04;;;;;;;2.72;0.20;;;;;;;21.52;61.22;100690.44;5022702;28;20116;-69
2022/10/16 11:19:35;;;;;;;0.20;0.15;;;;;;;21.78;60.19;100682.38;5032029;28;20033;-69
2022/10/16 11:22:03;;;;;;;0.20;0.20;;;;;;;21.90;59.81;100696.22;5033060;28;20025;-69
2022/10/16 11:25:02;;;;;;;0.95;0.35;;;;;;;21.68;59.83;100691.66;5032050;28;20041;-70
2022/10/16 11:28:13;;;;;;;4.32;0.47;;;;;;;21.58;59.91;100702.44;5028717;28;20117;-68
2022/10/16 11:30:53;;;;;;;0.30;0.20;;;;;;;21.66;59.49;100686.59;5014266;28;20088;-69
2022/10/16 11:33:31;;;;;;;0.23;0.20;;;;;;;21.68;60.40;100702.63;5029405;28;20044;-68
2022/10/16 11:36:18;;;;;;;2.00;0.10;;;;;;;21.76;58.58;100695.75;5013462;28;20037;-69
2022/10/16 11:39:18;;;;;;;0.40;0.20;;;;;;;21.71;59.24;100701.75;5014142;28;20058;-69
2022/10/16 11:41:47;;;;;;;0.45;0.20;;;;;;;21.83;59.06;100707.38;5014031;28;20042;-69